Time;durP1;ratioP1;P1;durP2;ratioP2;P2;SDS_P1;SDS_P2;PMS_P1;PMS_P2;Temp;Humidity;BMP_temperature;BMP_pressure;BME280_temperature;BME280_humidity;BME280_pressure;Samples;Min_cycle;Max_cycle;Signal;HPM_P1;HPM_P2
2021/12/24 00:00:54;;;;;;;44.45;23.30;;;9.00;92.00;;;;;;4951063;28;20698;-88
2021/12/24 00:03:20;;;;;;;58.63;25.38;;;9.10;92.10;;;;;;4976798;28;20188;-88
2021/12/24 00:05:46;;;;;;;43.28;24.60;;;9.20;91.90;;;;;;4975851;28;20187;-87
2021/12/24 00:08:12;;;;;;;55.00;26.37;;;9.10;91.80;;;;;;4941642;29;20189;-88
2021/12/24 00:10:39;;;;;;;48.43;24.60;;;9.20;91.70;;;;;;4936575;29;20201;-88
2021/12/24 00:13:12;;;;;;;48.28;24.10;;;9.20;91.70;;;;;;4940857;29;20179;-88
2021/12/24 00:37:27;;;;;;;61.50;26.33;;;9.30;92.00;;;;;;4940074;29;20256;-88
2021/12/24 00:40:12;;;;;;;54.13;28.20;;;9.20;91.90;;;;;;4938320;29;20209;-88
2021/12/24 00:42:39;;;;;;;48.42;26.60;;;9.20;92.10;;;;;;4938845;29;20201;-88
2021/12/24 00:45:06;;;;;;;55.85;25.75;;;9.20;92.10;;;;;;4950752;29;20184;-88
2021/12/24 00:47:31;;;;;;;52.85;26.70;;;9.20;92.00;;;;;;4957799;29;20273;-88
2021/12/24 00:49:58;;;;;;;52.53;24.57;;;9.30;92.00;;;;;;4957653;29;20204;-88
2021/12/24 00:55:09;;;;;;;50.28;23.92;;;9.30;91.90;;;;;;4960952;29;20655;-89
2021/12/24 00:57:57;;;;;;;45.45;24.38;;;9.40;91.90;;;;;;4956795;29;20328;-88
2021/12/24 01:00:35;;;;;;;51.35;25.65;;;9.40;91.70;;;;;;4956128;29;20512;-88
2021/12/24 01:03:05;;;;;;;53.28;24.65;;;9.40;91.70;;;;;;4956704;29;20204;-88
2021/12/24 01:05:31;;;;;;;47.03;25.13;;;9.50;91.70;;;;;;4957071;29;20189;-88
2021/12/24 01:07:56;;;;;;;57.25;24.98;;;9.40;91.30;;;;;;4957605;29;20184;-88
2021/12/24 01:10:29;;;;;;;48.40;26.77;;;9.40;91.40;;;;;;4956553;29;20181;-88
2021/12/24 01:12:56;;;;;;;56.92;29.58;;;9.30;91.50;;;;;;4956276;29;20470;-87
2021/12/24 01:15:23;;;;;;;52.88;25.30;;;9.30;91.60;;;;;;4955770;29;20185;-87
2021/12/24 01:39:38;;;;;;;47.72;25.50;;;9.50;91.40;;;;;;4942714;29;20215;-89
2021/12/24 01:44:49;;;;;;;52.47;25.58;;;9.70;91.10;;;;;;4943099;29;20228;-88
2021/12/24 01:47:16;;;;;;;52.28;27.33;;;9.60;90.90;;;;;;4945258;29;20220;-89
2021/12/24 01:49:42;;;;;;;56.22;26.08;;;9.60;90.80;;;;;;4947663;29;20189;-88
2021/12/24 01:52:08;;;;;;;50.17;24.70;;;9.60;90.80;;;;;;4947994;29;20217;-89
2021/12/24 01:54:34;;;;;;;68.83;25.80;;;9.60;90.80;;;;;;4948681;29;20940;-89
2021/12/24 01:57:00;;;;;;;48.22;24.92;;;9.50;91.00;;;;;;4949725;29;20483;-88
2021/12/24 01:59:26;;;;;;;50.65;24.08;;;9.50;91.00;;;;;;4948918;29;20271;-89
2021/12/24 02:01:53;;;;;;;63.42;23.50;;;9.60;91.00;;;;;;4981037;28;20200;-88
2021/12/24 02:04:20;;;;;;;47.17;25.50;;;9.50;91.00;;;;;;4985602;28;20272;-88
2021/12/24 02:06:47;;;;;;;48.72;24.98;;;9.60;91.10;;;;;;4982930;28;20180;-88
2021/12/24 02:09:13;;;;;;;55.28;24.02;;;9.60;91.10;;;;;;4981957;28;20185;-88
2021/12/24 02:11:39;;;;;;;54.53;25.98;;;9.60;91.00;;;;;;4981617;28;20191;-88
2021/12/24 02:14:11;;;;;;;53.17;27.42;;;9.60;91.00;;;;;;4979389;28;20211;-88
2021/12/24 02:30:21;;;;;;;51.05;24.20;;;9.70;90.80;;;;;;4962652;28;20616;-88
2021/12/24 02:32:47;;;;;;;52.83;25.70;;;9.60;90.80;;;;;;4958700;28;20196;-88
2021/12/24 02:35:12;;;;;;;53.10;25.40;;;9.70;91.10;;;;;;4947119;29;20560;-88
2021/12/24 02:37:38;;;;;;;67.43;25.93;;;9.60;91.00;;;;;;4940610;29;20473;-89
2021/12/24 02:40:06;;;;;;;52.60;24.23;;;9.70;91.20;;;;;;4940991;29;20205;-88
2021/12/24 02:42:34;;;;;;;62.70;26.52;;;9.60;91.20;;;;;;4940319;29;20204;-88
2021/12/24 02:45:00;;;;;;;45.92;24.65;;;9.80;91.30;;;;;;4940359;29;20181;-89
2021/12/24 02:47:43;;;;;;;62.07;26.23;;;9.80;91.20;;;;;;4941184;29;20181;-88
2021/12/24 02:55:26;;;;;;;45.95;23.73;;;9.90;90.80;;;;;;4942432;29;20183;-88
2021/12/24 02:57:51;;;;;;;52.53;24.75;;;9.80;90.70;;;;;;4942862;29;20253;-89
2021/12/24 03:00:25;;;;;;;63.10;24.20;;;9.80;90.70;;;;;;4941106;29;20237;-88
2021/12/24 03:02:51;;;;;;;63.58;26.85;;;9.80;90.70;;;;;;4940166;29;20248;-88
2021/12/24 03:05:18;;;;;;;59.92;24.10;;;9.80;90.70;;;;;;4939460;29;20622;-88
2021/12/24 03:07:45;;;;;;;51.25;25.40;;;9.80;90.70;;;;;;4944666;29;20176;-88
2021/12/24 03:10:15;;;;;;;49.67;23.30;;;9.80;90.70;;;;;;4960985;29;20193;-88
2021/12/24 03:12:45;;;;;;;45.05;24.55;;;9.80;90.80;;;;;;4960770;29;20644;-88
2021/12/24 03:15:13;;;;;;;75.40;28.23;;;9.70;90.80;;;;;;4940472;29;20605;-88
2021/12/24 03:17:39;;;;;;;63.08;25.90;;;9.80;90.90;;;;;;4943240;29;20177;-88
2021/12/24 03:20:09;;;;;;;49.00;24.05;;;9.80;90.80;;;;;;4943371;29;20212;-88
2021/12/24 03:25:20;;;;;;;48.92;23.20;;;10.00;90.70;;;;;;4958311;29;20235;-88
2021/12/24 03:27:45;;;;;;;59.13;24.80;;;9.90;90.60;;;;;;4960401;29;20184;-88
2021/12/24 03:30:13;;;;;;;52.53;23.70;;;9.80;90.60;;;;;;4961362;29;20267;-88
2021/12/24 03:32:39;;;;;;;48.80;23.23;;;9.80;90.60;;;;;;4962299;29;20196;-88
2021/12/24 03:35:05;;;;;;;47.55;23.63;;;10.00;90.70;;;;;;4971490;29;20180;-88
2021/12/24 03:37:31;;;;;;;53.30;25.40;;;9.90;90.70;;;;;;4987433;28;20172;-88
2021/12/24 03:39:57;;;;;;;52.10;25.70;;;10.00;90.70;;;;;;4998345;28;20251;-86
2021/12/24 03:42:23;;;;;;;45.90;23.80;;;10.00;90.60;;;;;;4966915;28;20508;-87
2021/12/24 03:44:59;;;;;;;55.63;22.20;;;10.00;90.60;;;;;;4959293;28;20217;-88
2021/12/24 03:47:27;;;;;;;54.95;22.67;;;10.00;90.50;;;;;;4959815;28;20177;-86
2021/12/24 03:49:58;;;;;;;52.30;23.58;;;10.00;90.30;;;;;;4960446;28;20217;-87
2021/12/24 03:54:55;;;;;;;56.10;25.00;;;10.10;90.30;;;;;;4959797;28;20174;-88
2021/12/24 03:57:21;;;;;;;53.10;24.02;;;10.00;90.30;;;;;;4959647;29;20184;-88
2021/12/24 03:59:47;;;;;;;51.40;22.30;;;10.00;90.30;;;;;;4969966;28;20204;-88
2021/12/24 04:02:12;;;;;;;62.30;25.50;;;10.10;90.50;;;;;;4968384;29;20447;-88
2021/12/24 04:04:38;;;;;;;63.37;23.77;;;10.00;90.40;;;;;;4964067;29;20212;-88
2021/12/24 04:07:04;;;;;;;61.87;24.20;;;10.10;90.40;;;;;;4967823;29;20198;-88
2021/12/24 04:09:31;;;;;;;57.85;23.60;;;10.10;90.40;;;;;;4965417;29;20622;-88
2021/12/24 04:11:57;;;;;;;59.40;25.13;;;10.10;90.40;;;;;;4967608;29;20231;-88
2021/12/24 04:14:23;;;;;;;48.87;23.40;;;10.10;90.40;;;;;;4963731;29;20244;-89
2021/12/24 04:16:49;;;;;;;70.53;26.70;;;10.10;90.30;;;;;;4965879;29;20188;-88
2021/12/24 04:27:12;;;;;;;52.63;22.67;;;10.10;90.40;;;;;;4964507;29;20318;-88
2021/12/24 04:29:37;;;;;;;51.50;22.80;;;10.10;90.30;;;;;;4963781;29;20279;-87
2021/12/24 04:32:14;;;;;;;66.57;23.73;;;10.00;90.20;;;;;;4960344;29;20482;-88
2021/12/24 04:34:44;;;;;;;57.30;23.85;;;10.00;90.30;;;;;;4952520;29;20440;-89
2021/12/24 04:37:52;;;;;;;55.13;22.50;;;10.00;90.40;;;;;;4941804;29;20185;-88
2021/12/24 04:51:15;;;;;;;50.67;22.63;;;10.10;90.10;;;;;;4920116;29;20194;-88
2021/12/24 05:04:48;;;;;;;46.13;18.55;;;10.00;90.10;;;;;;4966153;29;20220;-89
2021/12/24 05:10:09;;;;;;;45.72;18.77;;;10.20;90.00;;;;;;4913880;28;20179;-89
2021/12/24 05:12:35;;;;;;;42.80;20.23;;;10.20;89.90;;;;;;4968607;29;20209;-89
2021/12/24 05:15:09;;;;;;;64.40;23.90;;;10.10;89.80;;;;;;4961562;29;20212;-89
2021/12/24 05:17:51;;;;;;;65.35;21.52;;;10.00;89.70;;;;;;4960714;28;20408;-89
2021/12/24 05:23:02;;;;;;;53.60;21.48;;;10.10;89.90;;;;;;4950269;29;20647;-89
2021/12/24 05:25:28;;;;;;;52.22;21.38;;;10.00;89.80;;;;;;4948134;29;20181;-88
2021/12/24 05:27:55;;;;;;;49.20;19.52;;;10.00;89.90;;;;;;4941527;29;20562;-89
2021/12/24 05:30:22;;;;;;;47.72;21.15;;;10.10;90.00;;;;;;4941158;29;20225;-88
2021/12/24 05:32:49;;;;;;;55.92;20.85;;;10.10;89.80;;;;;;4940463;29;20201;-88
2021/12/24 05:35:15;;;;;;;53.22;21.73;;;10.10;89.90;;;;;;4940193;29;20187;-88
2021/12/24 05:37:40;;;;;;;44.92;22.35;;;10.10;89.90;;;;;;4943010;29;20177;-88
2021/12/24 05:40:08;;;;;;;49.60;21.17;;;10.10;89.90;;;;;;4940771;29;20235;-88
2021/12/24 05:42:34;;;;;;;42.25;19.40;;;10.10;89.80;;;;;;4941265;29;20600;-88
2021/12/24 05:45:06;;;;;;;47.03;19.30;;;10.10;89.90;;;;;;4953714;29;20184;-88
2021/12/24 05:47:32;;;;;;;53.40;18.50;;;10.00;90.00;;;;;;4942163;29;20444;-89
2021/12/24 05:50:00;;;;;;;48.13;18.90;;;10.10;90.10;;;;;;4942764;29;20181;-88
2021/12/24 05:52:26;;;;;;;45.88;17.20;;;10.10;89.90;;;;;;4941118;29;20708;-88
2021/12/24 05:54:51;;;;;;;56.85;17.48;;;10.10;89.90;;;;;;4940352;29;20259;-89
2021/12/24 05:57:17;;;;;;;48.63;17.30;;;10.10;89.80;;;;;;4941209;29;20645;-88
2021/12/24 05:59:43;;;;;;;49.83;17.00;;;10.10;89.70;;;;;;4940959;29;20205;-88
2021/12/24 06:02:09;;;;;;;43.23;17.90;;;10.10;89.80;;;;;;4940194;29;20211;-89
2021/12/24 06:04:35;;;;;;;58.30;18.70;;;10.30;89.70;;;;;;4942130;28;20955;-89
2021/12/24 06:07:01;;;;;;;46.03;18.73;;;10.20;89.50;;;;;;4978485;28;20194;-89
2021/12/24 06:09:26;;;;;;;48.33;18.27;;;10.20;89.50;;;;;;4944181;28;20430;-88
2021/12/24 06:11:52;;;;;;;56.00;18.33;;;10.30;89.50;;;;;;4940170;29;20200;-86
2021/12/24 06:14:18;;;;;;;54.60;21.40;;;10.20;89.30;;;;;;4940198;29;20185;-87
2021/12/24 06:16:50;;;;;;;52.80;21.17;;;10.10;89.40;;;;;;4943922;29;20191;-88
2021/12/24 06:19:17;;;;;;;50.97;20.05;;;10.10;89.40;;;;;;4942075;29;20201;-88
2021/12/24 06:21:44;;;;;;;48.47;20.88;;;10.20;89.30;;;;;;4942310;29;20575;-88
2021/12/24 06:24:12;;;;;;;59.00;21.48;;;10.20;89.30;;;;;;4947182;29;20193;-89
2021/12/24 06:26:38;;;;;;;56.88;23.00;;;10.10;89.40;;;;;;4947126;29;20213;-88
2021/12/24 06:29:04;;;;;;;59.88;21.15;;;10.20;89.40;;;;;;4948320;29;20648;-88
2021/12/24 06:31:30;;;;;;;67.03;23.80;;;10.20;89.30;;;;;;4947264;29;20241;-88
2021/12/24 06:33:56;;;;;;;56.13;20.77;;;10.20;89.30;;;;;;4945358;29;20425;-88
2021/12/24 06:36:22;;;;;;;58.00;23.20;;;10.10;89.30;;;;;;4945927;28;20931;-88
2021/12/24 06:38:47;;;;;;;60.40;24.70;;;10.10;89.50;;;;;;4983656;28;20459;-87
2021/12/24 06:41:13;;;;;;;49.33;21.70;;;10.20;89.40;;;;;;4971397;28;20208;-86
2021/12/24 06:43:39;;;;;;;58.27;22.80;;;10.30;89.50;;;;;;4949670;29;20425;-86
2021/12/24 06:46:10;;;;;;;65.90;25.00;;;10.20;89.30;;;;;;4945144;29;20205;-87
2021/12/24 06:48:37;;;;;;;60.35;24.58;;;10.10;89.20;;;;;;4944954;29;20445;-87
2021/12/24 06:51:03;;;;;;;65.65;25.45;;;10.20;89.20;;;;;;4944859;29;20197;-87
2021/12/24 06:53:29;;;;;;;70.18;23.85;;;10.10;89.30;;;;;;4951063;29;20173;-87
2021/12/24 06:55:55;;;;;;;77.17;25.10;;;10.20;89.40;;;;;;4955642;29;20182;-86
2021/12/24 06:58:22;;;;;;;50.70;23.03;;;10.20;89.40;;;;;;4959101;29;20278;-86
2021/12/24 07:00:48;;;;;;;64.25;26.38;;;10.30;89.40;;;;;;4969678;29;20475;-86
2021/12/24 07:03:14;;;;;;;53.57;21.50;;;10.40;89.20;;;;;;4972109;29;20176;-86
2021/12/24 07:05:40;;;;;;;67.88;24.20;;;10.40;89.00;;;;;;4969086;29;20184;-86
2021/12/24 07:08:05;;;;;;;63.97;24.43;;;10.30;88.90;;;;;;4970840;29;20203;-86
2021/12/24 07:10:32;;;;;;;78.57;26.50;;;10.30;88.80;;;;;;4970750;29;20197;-86
2021/12/24 07:12:57;;;;;;;57.47;24.35;;;10.30;88.80;;;;;;4966050;28;20428;-87
2021/12/24 07:15:23;;;;;;;47.70;22.97;;;10.20;88.90;;;;;;4970045;29;20267;-85
2021/12/24 07:17:49;;;;;;;62.67;22.70;;;10.20;88.90;;;;;;4962949;29;20640;-87
2021/12/24 07:20:15;;;;;;;58.37;25.07;;;10.10;89.00;;;;;;4960555;28;20283;-86
2021/12/24 07:22:41;;;;;;;76.90;27.25;;;10.30;89.10;;;;;;4946300;29;20437;-88
2021/12/24 07:25:08;;;;;;;69.70;23.97;;;10.20;89.00;;;;;;4949082;28;20253;-86
2021/12/24 07:27:35;;;;;;;70.30;24.42;;;10.30;89.10;;;;;;4962310;28;20476;-80
2021/12/24 07:30:04;;;;;;;76.65;29.40;;;10.40;88.90;;;;;;4965012;28;20624;-81
2021/12/24 07:32:29;;;;;;;62.72;24.65;;;10.30;88.80;;;;;;4922303;28;1202453;-83
2021/12/24 07:34:55;;;;;;;65.33;25.43;;;10.40;88.70;;;;;;4950654;29;20181;-81
2021/12/24 07:37:21;;;;;;;48.07;21.13;;;10.40;88.70;;;;;;4961483;28;20194;-82
2021/12/24 07:39:46;;;;;;;55.30;23.80;;;10.50;88.50;;;;;;4971399;28;20204;-82
2021/12/24 07:42:12;;;;;;;61.83;23.83;;;10.50;88.30;;;;;;4959857;28;20207;-82
2021/12/24 07:44:38;;;;;;;55.63;21.63;;;10.40;88.20;;;;;;4957784;28;20180;-85
2021/12/24 07:47:07;;;;;;;51.93;24.17;;;10.30;88.50;;;;;;4956985;28;20298;-83
2021/12/24 07:49:40;;;;;;;71.22;26.60;;;10.30;88.70;;;;;;4960401;28;20263;-83
2021/12/24 07:52:11;;;;;;;59.75;23.52;;;10.40;88.70;;;;;;4959093;28;20242;-83
2021/12/24 07:54:42;;;;;;;72.50;25.95;;;10.50;88.80;;;;;;4961089;28;20161;-83
2021/12/24 07:57:09;;;;;;;49.53;22.52;;;10.50;88.70;;;;;;4960634;29;20208;-83
2021/12/24 07:59:37;;;;;;;55.65;23.10;;;10.50;88.50;;;;;;4962228;29;20212;-83
2021/12/24 08:02:07;;;;;;;70.85;25.10;;;10.50;88.40;;;;;;4979462;28;20290;-83
2021/12/24 08:04:32;;;;;;;67.90;24.15;;;10.40;88.30;;;;;;4983846;28;20195;-83
2021/12/24 08:07:01;;;;;;;68.23;24.50;;;10.40;88.30;;;;;;4984605;28;20176;-84
2021/12/24 08:09:26;;;;;;;49.72;22.95;;;10.40;88.30;;;;;;4983914;28;20195;-84
2021/12/24 08:11:54;;;;;;;51.57;22.40;;;10.50;88.40;;;;;;4981206;28;20261;-84
2021/12/24 08:14:19;;;;;;;64.20;24.60;;;10.60;88.30;;;;;;4967362;28;20428;-83
2021/12/24 08:16:45;;;;;;;50.87;21.97;;;10.70;88.30;;;;;;4960398;29;20192;-84
2021/12/24 08:19:13;;;;;;;53.20;22.90;;;10.60;87.90;;;;;;4961232;29;20218;-83
2021/12/24 08:21:39;;;;;;;54.15;22.73;;;10.60;87.80;;;;;;4960850;28;20216;-83
2021/12/24 08:24:05;;;;;;;50.20;21.50;;;10.60;87.90;;;;;;4960061;29;20228;-85
2021/12/24 08:26:32;;;;;;;61.33;22.13;;;10.70;87.90;;;;;;4954716;29;20422;-84
2021/12/24 08:28:58;;;;;;;49.38;22.80;;;10.70;87.60;;;;;;4956314;29;20267;-85
2021/12/24 08:31:24;;;;;;;67.88;25.20;;;10.50;87.70;;;;;;4957918;28;20227;-84
2021/12/24 08:33:50;;;;;;;51.93;23.77;;;10.60;88.00;;;;;;4960309;29;20659;-85
2021/12/24 08:36:16;;;;;;;58.60;22.27;;;10.60;87.60;;;;;;4959896;29;20254;-85
2021/12/24 08:38:41;;;;;;;55.10;23.13;;;10.60;87.50;;;;;;4942207;29;20428;-85
2021/12/24 08:41:07;;;;;;;46.00;23.33;;;10.60;87.60;;;;;;4948674;29;20437;-84
2021/12/24 08:43:33;;;;;;;63.53;25.87;;;10.60;87.60;;;;;;4945812;29;20177;-84
2021/12/24 08:45:59;;;;;;;62.03;25.63;;;10.60;87.60;;;;;;4940691;29;20264;-84
2021/12/24 08:48:25;;;;;;;50.40;23.83;;;10.80;87.60;;;;;;4941763;29;20213;-84
2021/12/24 08:50:51;;;;;;;54.77;23.63;;;10.70;87.20;;;;;;4939801;29;20736;-84
2021/12/24 08:53:16;;;;;;;47.60;23.80;;;10.70;87.30;;;;;;4940882;29;20201;-83
2021/12/24 08:55:43;;;;;;;50.47;23.80;;;10.60;87.10;;;;;;4945064;29;20180;-84
2021/12/24 08:58:09;;;;;;;50.72;21.25;;;10.80;87.10;;;;;;4943709;29;20185;-84
2021/12/24 09:00:36;;;;;;;48.70;25.87;;;10.70;87.00;;;;;;4951399;28;20226;-85
2021/12/24 09:03:02;;;;;;;44.10;20.20;;;10.70;87.00;;;;;;4981594;28;20441;-85
2021/12/24 09:05:29;;;;;;;54.13;22.48;;;10.70;86.90;;;;;;4979282;28;20180;-85
2021/12/24 09:07:55;;;;;;;49.80;22.70;;;10.50;87.00;;;;;;4977998;28;20188;-85
2021/12/24 09:10:22;;;;;;;55.90;23.38;;;10.50;87.20;;;;;;4978129;28;20180;-84
2021/12/24 09:12:48;;;;;;;46.17;21.40;;;10.50;87.20;;;;;;4979172;28;20319;-84
2021/12/24 09:15:17;;;;;;;46.10;22.60;;;10.50;87.40;;;;;;4957953;28;20217;-85
2021/12/24 09:17:45;;;;;;;47.47;21.17;;;10.60;87.50;;;;;;4958821;29;20455;-84
2021/12/24 09:20:19;;;;;;;52.65;21.45;;;10.80;87.50;;;;;;4973362;28;20302;-84
2021/12/24 09:22:46;;;;;;;43.90;21.08;;;10.80;87.20;;;;;;4979904;28;20195;-85
2021/12/24 09:25:12;;;;;;;43.25;21.42;;;10.90;87.20;;;;;;4979561;28;20180;-84
2021/12/24 09:27:38;;;;;;;51.67;22.10;;;11.00;87.00;;;;;;4978687;28;20258;-85
2021/12/24 09:30:05;;;;;;;47.30;19.92;;;11.00;86.80;;;;;;4980684;28;20427;-84
2021/12/24 09:32:31;;;;;;;42.70;18.48;;;10.90;86.60;;;;;;4980006;28;20219;-84
2021/12/24 09:34:57;;;;;;;41.27;20.43;;;10.90;86.40;;;;;;4969042;28;20177;-84
2021/12/24 09:37:23;;;;;;;45.58;19.25;;;10.80;86.20;;;;;;4970418;28;20426;-84
2021/12/24 09:39:49;;;;;;;50.15;19.27;;;10.80;86.40;;;;;;4980432;28;20242;-84
2021/12/24 09:42:15;;;;;;;43.92;18.25;;;10.80;86.40;;;;;;4979379;28;20675;-84
2021/12/24 09:44:41;;;;;;;36.23;18.77;;;10.70;86.40;;;;;;4981128;28;20191;-84
2021/12/24 09:47:07;;;;;;;48.30;19.70;;;10.70;86.60;;;;;;4982065;28;20211;-84
2021/12/24 09:49:33;;;;;;;46.58;18.73;;;10.80;86.70;;;;;;4981794;28;20254;-84
2021/12/24 09:52:01;;;;;;;38.88;19.60;;;10.90;86.60;;;;;;4982674;28;20647;-84
2021/12/24 09:54:27;;;;;;;37.05;18.55;;;10.80;86.40;;;;;;4985268;28;20706;-84
2021/12/24 09:56:55;;;;;;;40.57;16.93;;;10.80;86.50;;;;;;4969650;28;20184;-84
2021/12/24 09:59:21;;;;;;;38.80;19.05;;;10.70;86.70;;;;;;4963136;29;20467;-84
2021/12/24 10:01:59;;;;;;;43.50;19.67;;;10.70;87.50;;;;;;4962928;29;20356;-85
2021/12/24 10:04:30;;;;;;;49.00;20.00;;;10.80;86.70;;;;;;4969121;29;20164;-85
2021/12/24 10:07:05;;;;;;;36.75;17.50;;;10.80;86.70;;;;;;4963165;29;20181;-85
2021/12/24 10:09:37;;;;;;;38.55;18.75;;;10.70;86.70;;;;;;4961427;29;20275;-85
2021/12/24 10:12:15;;;;;;;42.45;18.08;;;10.60;86.70;;;;;;4963198;29;20228;-85
2021/12/24 10:14:46;;;;;;;43.22;17.02;;;10.60;86.80;;;;;;4960665;28;20546;-84
2021/12/24 10:17:16;;;;;;;46.47;19.17;;;10.70;87.00;;;;;;4958564;29;20173;-85
2021/12/24 10:19:53;;;;;;;46.30;18.95;;;10.60;86.80;;;;;;4958722;29;20227;-86
2021/12/24 10:22:19;;;;;;;35.00;16.25;;;10.80;86.90;;;;;;4958515;28;20218;-87
2021/12/24 10:25:09;;;;;;;45.38;18.65;;;10.80;86.70;;;;;;4957151;29;20180;-84
2021/12/24 10:27:35;;;;;;;38.85;18.73;;;10.90;86.60;;;;;;4966903;28;20240;-86
2021/12/24 10:30:18;;;;;;;45.35;18.30;;;11.10;86.30;;;;;;4975796;29;20192;-85
2021/12/24 10:32:44;;;;;;;42.40;15.88;;;11.20;86.00;;;;;;4970148;29;20203;-83
2021/12/24 10:35:30;;;;;;;37.88;16.70;;;11.20;85.70;;;;;;4959336;28;20294;-84
2021/12/24 10:38:14;;;;;;;33.28;15.98;;;11.30;85.50;;;;;;4961074;29;20641;-84
2021/12/24 10:41:06;;;;;;;33.28;17.00;;;11.50;85.10;;;;;;4959569;29;20307;-84
2021/12/24 10:43:34;;;;;;;36.22;16.27;;;11.50;84.80;;;;;;4959294;29;20187;-84
2021/12/24 10:46:18;;;;;;;41.22;17.42;;;11.40;84.20;;;;;;4960145;29;20256;-84
2021/12/24 10:49:02;;;;;;;31.30;16.50;;;11.50;84.10;;;;;;4962088;29;20187;-84
2021/12/24 10:52:13;;;;;;;49.50;18.42;;;11.50;83.90;;;;;;4959798;29;20208;-84
2021/12/24 10:54:18;;;;;;;37.83;17.38;;;11.50;83.90;;;;;;4951901;28;20208;-85
2021/12/24 10:56:44;;;;;;;34.00;16.73;;;11.50;83.70;;;;;;4958744;29;20181;-84
2021/12/24 10:59:10;;;;;;;39.03;16.63;;;11.50;83.60;;;;;;4958875;28;20213;-84
2021/12/24 11:01:36;;;;;;;37.50;19.97;;;11.50;83.60;;;;;;4961298;28;20204;-84
2021/12/24 11:04:01;;;;;;;44.37;19.97;;;11.50;83.60;;;;;;4960753;29;20204;-83
2021/12/24 11:06:31;;;;;;;37.33;20.23;;;11.60;83.30;;;;;;4958581;29;20683;-84
2021/12/24 11:08:59;;;;;;;39.25;19.45;;;11.50;83.20;;;;;;4961310;29;20541;-84
2021/12/24 11:11:35;;;;;;;42.97;19.90;;;11.50;83.20;;;;;;4958111;29;20236;-84
2021/12/24 11:14:01;;;;;;;35.20;20.17;;;11.60;83.10;;;;;;4959083;28;20494;-84
2021/12/24 11:16:27;;;;;;;41.50;21.23;;;11.60;83.10;;;;;;4976845;28;20194;-84
2021/12/24 11:19:00;;;;;;;43.58;19.48;;;11.50;83.00;;;;;;4975852;28;20521;-84
2021/12/24 11:21:29;;;;;;;36.92;18.00;;;11.40;83.10;;;;;;4938528;29;20672;-84
2021/12/24 11:23:56;;;;;;;33.25;17.00;;;11.50;83.30;;;;;;4940619;29;20174;-84
2021/12/24 11:26:28;;;;;;;40.83;20.80;;;11.50;83.30;;;;;;4939202;29;20186;-85
2021/12/24 11:28:57;;;;;;;39.97;18.80;;;11.30;83.40;;;;;;4937869;29;20188;-85
2021/12/24 11:31:28;;;;;;;39.70;18.77;;;11.50;83.50;;;;;;4938384;29;20209;-84
2021/12/24 11:33:55;;;;;;;43.42;19.83;;;11.40;83.40;;;;;;4939539;29;20217;-84
2021/12/24 11:36:23;;;;;;;35.63;17.80;;;11.40;83.40;;;;;;4937392;29;20237;-85
2021/12/24 11:38:59;;;;;;;36.53;19.30;;;11.30;83.50;;;;;;4940383;29;20189;-84
2021/12/24 11:41:30;;;;;;;39.72;18.80;;;11.20;83.60;;;;;;4956992;28;20204;-84
2021/12/24 11:43:57;;;;;;;43.53;19.80;;;11.30;84.00;;;;;;4968226;28;20180;-86
2021/12/24 11:46:26;;;;;;;41.15;18.98;;;11.10;83.90;;;;;;4956959;29;20223;-85
2021/12/24 11:48:54;;;;;;;37.42;18.55;;;11.20;84.10;;;;;;4959552;29;20183;-84
2021/12/24 11:51:34;;;;;;;36.92;18.92;;;11.20;84.20;;;;;;4962243;29;20212;-85
2021/12/24 11:54:05;;;;;;;45.22;20.42;;;11.30;84.20;;;;;;4943063;29;20216;-86
2021/12/24 11:56:42;;;;;;;40.30;19.92;;;11.30;84.20;;;;;;4936186;29;20189;-86
2021/12/24 11:59:08;;;;;;;42.38;20.27;;;11.30;84.20;;;;;;4937106;29;20212;-86
2021/12/24 12:01:39;;;;;;;44.90;20.87;;;11.20;84.00;;;;;;4946299;29;20212;-85
2021/12/24 12:04:13;;;;;;;41.05;19.35;;;11.30;84.20;;;;;;4956232;29;20168;-85
2021/12/24 12:06:38;;;;;;;43.47;18.08;;;11.10;84.10;;;;;;4956646;28;20185;-85
2021/12/24 12:09:10;;;;;;;49.73;22.33;;;11.20;84.10;;;;;;4954011;28;20193;-86
2021/12/24 12:11:38;;;;;;;48.42;21.65;;;11.00;84.10;;;;;;4939718;29;20711;-85
2021/12/24 12:14:17;;;;;;;41.17;21.23;;;10.90;84.30;;;;;;4948900;29;20184;-85
2021/12/24 12:16:43;;;;;;;37.80;20.73;;;10.90;84.50;;;;;;4956626;29;20203;-85
2021/12/24 12:19:16;;;;;;;38.30;19.67;;;11.00;84.70;;;;;;4958264;28;20211;-85
2021/12/24 12:22:18;;;;;;;46.72;20.33;;;11.00;84.40;;;;;;4958258;28;20667;-86
2021/12/24 12:24:57;;;;;;;44.35;20.10;;;11.00;84.40;;;;;;4956061;28;20180;-85
2021/12/24 12:27:34;;;;;;;61.53;20.55;;;10.90;84.50;;;;;;4955731;29;20181;-85
2021/12/24 12:30:22;;;;;;;41.90;20.00;;;11.10;84.50;;;;;;4942426;28;20591;-84
2021/12/24 12:32:49;;;;;;;41.58;19.20;;;11.10;84.50;;;;;;4936325;29;20276;-84
2021/12/24 12:35:15;;;;;;;43.38;20.35;;;11.10;84.40;;;;;;4936399;29;20188;-84
2021/12/24 12:37:50;;;;;;;40.50;22.65;;;11.20;84.40;;;;;;4937531;29;20188;-84
2021/12/24 12:40:16;;;;;;;40.85;21.05;;;11.20;84.10;;;;;;4943538;29;20581;-85
2021/12/24 12:42:51;;;;;;;43.63;20.50;;;11.20;84.20;;;;;;4941624;29;20194;-84
2021/12/24 12:45:41;;;;;;;41.75;19.70;;;11.10;84.10;;;;;;4957971;29;20184;-84
2021/12/24 12:48:12;;;;;;;38.63;19.95;;;11.00;84.30;;;;;;4951709;29;20243;-83
2021/12/24 12:50:49;;;;;;;46.00;20.92;;;11.10;84.40;;;;;;4944704;29;20211;-85
2021/12/24 12:53:35;;;;;;;49.05;20.85;;;11.00;84.30;;;;;;4937521;29;20177;-83
2021/12/24 12:56:18;;;;;;;41.67;21.52;;;11.00;84.40;;;;;;4937810;29;20182;-83
2021/12/24 12:58:46;;;;;;;48.92;20.80;;;11.00;84.40;;;;;;4938546;29;20216;-84
2021/12/24 13:01:15;;;;;;;53.88;21.40;;;10.90;84.70;;;;;;4951854;29;20208;-85
2021/12/24 13:03:56;;;;;;;41.45;21.45;;;11.00;84.90;;;;;;4956593;29;20204;-85
2021/12/24 13:06:50;;;;;;;46.95;21.08;;;10.90;84.70;;;;;;4958830;29;20188;-83
2021/12/24 13:09:21;;;;;;;47.92;23.65;;;11.00;84.90;;;;;;4955984;29;20240;-83
2021/12/24 13:11:50;;;;;;;35.33;20.27;;;10.90;85.00;;;;;;4958029;29;20779;-84
2021/12/24 13:14:18;;;;;;;48.20;22.42;;;11.00;85.10;;;;;;4957233;28;20621;-85
2021/12/24 13:22:28;;;;;;;41.95;19.73;;;11.10;85.00;;;;;;4962519;28;20192;-84
2021/12/24 13:25:05;;;;;;;46.47;19.48;;;10.90;84.90;;;;;;4962472;29;20320;-85
2021/12/24 13:27:34;;;;;;;49.47;19.67;;;11.00;85.00;;;;;;4962596;29;20647;-84
2021/12/24 13:30:07;;;;;;;43.55;19.65;;;11.00;85.00;;;;;;4962845;29;20216;-84
2021/12/24 13:32:38;;;;;;;52.40;21.52;;;10.90;85.00;;;;;;4963395;29;20201;-85
2021/12/24 13:35:04;;;;;;;45.20;19.73;;;10.90;85.00;;;;;;4955595;28;20368;-84
2021/12/24 13:37:32;;;;;;;54.43;19.63;;;10.90;85.10;;;;;;4945162;29;20687;-83
2021/12/24 13:39:58;;;;;;;56.60;24.08;;;10.90;85.20;;;;;;4944147;29;20476;-83
2021/12/24 13:42:23;;;;;;;41.60;22.30;;;10.90;85.40;;;;;;4949137;29;20208;-83
2021/12/24 13:44:57;;;;;;;39.70;19.13;;;10.90;85.40;;;;;;4957312;29;20181;-84
2021/12/24 13:47:39;;;;;;;49.78;21.02;;;10.90;85.50;;;;;;4969896;29;20272;-83
2021/12/24 13:50:24;;;;;;;47.15;20.58;;;10.90;85.50;;;;;;4964113;29;20180;-84
2021/12/24 13:55:42;;;;;;;38.13;20.10;;;11.00;85.60;;;;;;4960337;29;20208;-84
2021/12/24 13:58:11;;;;;;;41.72;18.90;;;11.10;85.70;;;;;;4961087;28;20177;-85
2021/12/24 14:00:46;;;;;;;39.55;18.40;;;11.00;85.60;;;;;;4963850;28;20212;-83
2021/12/24 14:03:12;;;;;;;28.48;15.85;;;10.90;85.70;;;;;;4963940;29;20282;-84
2021/12/24 14:05:52;;;;;;;59.42;20.48;;;10.90;86.00;;;;;;4966854;29;20180;-84
2021/12/24 14:08:21;;;;;;;38.45;19.38;;;11.00;86.00;;;;;;4967193;29;20192;-84
2021/12/24 14:10:49;;;;;;;26.30;13.75;;;10.90;85.90;;;;;;4973690;29;20207;-84
2021/12/24 14:13:27;;;;;;;39.28;17.83;;;11.00;85.90;;;;;;4971953;29;20267;-84
2021/12/24 14:24:12;;;;;;;31.15;17.45;;;11.00;85.10;;;;;;4964326;28;20176;-84
2021/12/24 14:26:53;;;;;;;37.85;16.52;;;11.00;85.10;;;;;;4965167;29;20177;-84
2021/12/24 14:29:26;;;;;;;43.50;18.45;;;11.10;85.10;;;;;;4961678;28;20212;-84
2021/12/24 14:31:56;;;;;;;43.40;18.45;;;11.20;85.10;;;;;;4963029;29;20220;-83
2021/12/24 14:34:49;;;;;;;29.90;15.80;;;11.30;84.90;;;;;;4964744;28;20247;-84
2021/12/24 14:37:35;;;;;;;36.97;18.02;;;11.30;84.50;;;;;;4962860;29;20195;-84
2021/12/24 14:40:05;;;;;;;40.13;17.48;;;11.30;84.40;;;;;;4965638;28;20208;-84
2021/12/24 14:42:37;;;;;;;45.95;17.30;;;11.20;84.40;;;;;;4962441;29;20208;-84
2021/12/24 14:45:27;;;;;;;28.85;16.17;;;11.20;84.50;;;;;;4962883;29;20177;-84